sensor_id;sensor_type;location;lat;lon;timestamp;pressure;altitude;pressure_sealevel;temperature;humidity
56944;BME280;42848;42.524;12.052;2023-03-14T00:01:58;96534.00;;;11.66;100.00
56944;BME280;42848;42.524;12.052;2023-03-14T00:04:24;96525.56;;;11.38;100.00
56944;BME280;42848;42.524;12.052;2023-03-14T00:06:49;96520.59;;;11.40;100.00
56944;BME280;42848;42.524;12.052;2023-03-14T00:09:16;96515.00;;;11.16;100.00
56944;BME280;42848;42.524;12.052;2023-03-14T00:11:42;96508.38;;;11.25;100.00
56944;BME280;42848;42.524;12.052;2023-03-14T00:14:08;96500.38;;;10.99;100.00
56944;BME280;42848;42.524;12.052;2023-03-14T00:16:34;96505.75;;;11.08;100.00
56944;BME280;42848;42.524;12.052;2023-03-14T00:18:59;96502.06;;;11.33;100.00
56944;BME280;42848;42.524;12.052;2023-03-14T00:21:25;96509.13;;;11.55;100.00
56944;BME280;42848;42.524;12.052;2023-03-14T00:23:52;96502.00;;;11.21;100.00
56944;BME280;42848;42.524;12.052;2023-03-14T00:26:19;96500.44;;;11.41;100.00
56944;BME280;42848;42.524;12.052;2023-03-14T00:28:46;96504.53;;;11.26;100.00
56944;BME280;42848;42.524;12.052;2023-03-14T00:31:14;96491.47;;;10.90;100.00
56944;BME280;42848;42.524;12.052;2023-03-14T00:33:41;96489.13;;;11.09;100.00
56944;BME280;42848;42.524;12.052;2023-03-14T00:36:10;96474.81;;;11.21;100.00
56944;BME280;42848;42.524;12.052;2023-03-14T00:38:37;96468.09;;;11.48;100.00
56944;BME280;42848;42.524;12.052;2023-03-14T00:41:06;96474.31;;;11.28;100.00
56944;BME280;42848;42.524;12.052;2023-03-14T00:43:32;96464.97;;;10.87;100.00
56944;BME280;42848;42.524;12.052;2023-03-14T00:45:58;96454.34;;;11.24;100.00
56944;BME280;42848;42.524;12.052;2023-03-14T00:48:24;96451.38;;;11.17;100.00
56944;BME280;42848;42.524;12.052;2023-03-14T00:50:50;96451.78;;;11.48;100.00
56944;BME280;42848;42.524;12.052;2023-03-14T00:53:16;96439.31;;;11.47;100.00
56944;BME280;42848;42.524;12.052;2023-03-14T00:55:43;96431.75;;;11.53;100.00
56944;BME280;42848;42.524;12.052;2023-03-14T00:58:10;96423.72;;;11.56;100.00
56944;BME280;42848;42.524;12.052;2023-03-14T01:00:37;96408.69;;;11.38;100.00
56944;BME280;42848;42.524;12.052;2023-03-14T01:03:04;96392.78;;;11.28;100.00
56944;BME280;42848;42.524;12.052;2023-03-14T01:05:30;96402.53;;;11.29;100.00
56944;BME280;42848;42.524;12.052;2023-03-14T01:07:56;96408.44;;;11.31;100.00
56944;BME280;42848;42.524;12.052;2023-03-14T01:10:22;96404.97;;;11.22;100.00
56944;BME280;42848;42.524;12.052;2023-03-14T01:12:48;96396.09;;;11.33;100.00
56944;BME280;42848;42.524;12.052;2023-03-14T01:15:14;96383.50;;;11.29;100.00
56944;BME280;42848;42.524;12.052;2023-03-14T01:17:40;96377.41;;;11.32;100.00
56944;BME280;42848;42.524;12.052;2023-03-14T01:20:09;96363.72;;;11.07;100.00
56944;BME280;42848;42.524;12.052;2023-03-14T01:22:36;96364.59;;;11.32;100.00
56944;BME280;42848;42.524;12.052;2023-03-14T01:25:07;96368.81;;;11.09;100.00
56944;BME280;42848;42.524;12.052;2023-03-14T01:27:33;96357.41;;;10.95;100.00
56944;BME280;42848;42.524;12.052;2023-03-14T01:29:58;96347.41;;;11.07;100.00
56944;BME280;42848;42.524;12.052;2023-03-14T01:32:24;96345.63;;;11.11;100.00
56944;BME280;42848;42.524;12.052;2023-03-14T01:34:51;96338.47;;;11.07;100.00
56944;BME280;42848;42.524;12.052;2023-03-14T01:37:17;96329.84;;;10.84;100.00
56944;BME280;42848;42.524;12.052;2023-03-14T01:39:42;96331.31;;;10.61;100.00
56944;BME280;42848;42.524;12.052;2023-03-14T01:42:08;96331.31;;;10.61;100.00
56944;BME280;42848;42.524;12.052;2023-03-14T01:47:20;96328.31;;;10.53;100.00
56944;BME280;42848;42.524;12.052;2023-03-14T01:49:51;96314.50;;;10.88;100.00
56944;BME280;42848;42.524;12.052;2023-03-14T01:52:29;96312.66;;;10.50;100.00
56944;BME280;42848;42.524;12.052;2023-03-14T01:55:06;96305.59;;;10.58;100.00
56944;BME280;42848;42.524;12.052;2023-03-14T01:57:45;96312.22;;;10.48;100.00
56944;BME280;42848;42.524;12.052;2023-03-14T02:00:15;96316.22;;;10.72;100.00
56944;BME280;42848;42.524;12.052;2023-03-14T02:02:47;96323.84;;;10.99;100.00
56944;BME280;42848;42.524;12.052;2023-03-14T02:05:17;96310.34;;;10.70;100.00
56944;BME280;42848;42.524;12.052;2023-03-14T02:07:50;96305.63;;;10.79;100.00
56944;BME280;42848;42.524;12.052;2023-03-14T02:10:18;96284.94;;;10.87;100.00
56944;BME280;42848;42.524;12.052;2023-03-14T02:12:49;96284.94;;;10.87;100.00
56944;BME280;42848;42.524;12.052;2023-03-14T02:15:16;96268.81;;;10.90;100.00
56944;BME280;42848;42.524;12.052;2023-03-14T02:17:43;96268.13;;;10.93;100.00
56944;BME280;42848;42.524;12.052;2023-03-14T02:22:47;96259.28;;;10.63;100.00
56944;BME280;42848;42.524;12.052;2023-03-14T02:25:34;96252.66;;;10.52;100.00
56944;BME280;42848;42.524;12.052;2023-03-14T02:28:04;96243.97;;;10.59;100.00
56944;BME280;42848;42.524;12.052;2023-03-14T02:30:31;96230.34;;;10.25;100.00
56944;BME280;42848;42.524;12.052;2023-03-14T02:33:04;96226.16;;;10.49;100.00
56944;BME280;42848;42.524;12.052;2023-03-14T02:36:02;96220.91;;;10.23;100.00
56944;BME280;42848;42.524;12.052;2023-03-14T02:41:07;96207.63;;;10.30;100.00
56944;BME280;42848;42.524;12.052;2023-03-14T02:43:33;96204.75;;;10.35;100.00
56944;BME280;42848;42.524;12.052;2023-03-14T02:46:00;96196.00;;;10.30;100.00
56944;BME280;42848;42.524;12.052;2023-03-14T02:48:36;96189.69;;;10.17;100.00
56944;BME280;42848;42.524;12.052;2023-03-14T02:51:05;96191.34;;;10.30;100.00
56944;BME280;42848;42.524;12.052;2023-03-14T02:53:33;96187.22;;;10.03;100.00
56944;BME280;42848;42.524;12.052;2023-03-14T02:56:00;96183.66;;;10.11;100.00
56944;BME280;42848;42.524;12.052;2023-03-14T02:58:26;96181.28;;;10.10;100.00
56944;BME280;42848;42.524;12.052;2023-03-14T03:00:53;96175.84;;;10.10;100.00
56944;BME280;42848;42.524;12.052;2023-03-14T03:03:19;96175.84;;;10.10;100.00
56944;BME280;42848;42.524;12.052;2023-03-14T03:05:54;96161.34;;;10.06;100.00
56944;BME280;42848;42.524;12.052;2023-03-14T03:08:21;96164.25;;;10.01;100.00
56944;BME280;42848;42.524;12.052;2023-03-14T03:10:48;96165.84;;;10.02;100.00
56944;BME280;42848;42.524;12.052;2023-03-14T03:13:14;96165.66;;;10.07;100.00
56944;BME280;42848;42.524;12.052;2023-03-14T03:15:40;96172.28;;;10.18;100.00
56944;BME280;42848;42.524;12.052;2023-03-14T03:18:06;96179.97;;;10.16;100.00
56944;BME280;42848;42.524;12.052;2023-03-14T03:20:32;96190.53;;;10.09;100.00
56944;BME280;42848;42.524;12.052;2023-03-14T03:22:59;96187.78;;;10.38;100.00
56944;BME280;42848;42.524;12.052;2023-03-14T03:25:25;96183.38;;;10.67;100.00
56944;BME280;42848;42.524;12.052;2023-03-14T03:27:51;96169.88;;;10.25;100.00
56944;BME280;42848;42.524;12.052;2023-03-14T03:30:18;96162.38;;;10.22;100.00
56944;BME280;42848;42.524;12.052;2023-03-14T03:32:44;96160.59;;;10.26;100.00
56944;BME280;42848;42.524;12.052;2023-03-14T03:35:10;96156.41;;;10.08;100.00
56944;BME280;42848;42.524;12.052;2023-03-14T03:37:36;96142.75;;;9.95;100.00
56944;BME280;42848;42.524;12.052;2023-03-14T03:40:02;96134.50;;;9.92;100.00
56944;BME280;42848;42.524;12.052;2023-03-14T03:42:31;96136.03;;;10.02;100.00
56944;BME280;42848;42.524;12.052;2023-03-14T03:44:57;96124.06;;;10.03;100.00
56944;BME280;42848;42.524;12.052;2023-03-14T03:47:22;96119.75;;;10.02;100.00
56944;BME280;42848;42.524;12.052;2023-03-14T03:49:48;96120.66;;;10.06;100.00
56944;BME280;42848;42.524;12.052;2023-03-14T03:52:14;96117.16;;;10.05;100.00
56944;BME280;42848;42.524;12.052;2023-03-14T03:54:39;96116.38;;;10.05;100.00
56944;BME280;42848;42.524;12.052;2023-03-14T03:57:05;96109.81;;;10.06;100.00
56944;BME280;42848;42.524;12.052;2023-03-14T03:59:30;96114.06;;;9.94;100.00
56944;BME280;42848;42.524;12.052;2023-03-14T04:01:56;96109.91;;;9.97;100.00
56944;BME280;42848;42.524;12.052;2023-03-14T04:04:22;96105.13;;;10.15;100.00
56944;BME280;42848;42.524;12.052;2023-03-14T04:06:47;96103.09;;;9.91;100.00
56944;BME280;42848;42.524;12.052;2023-03-14T04:09:13;96096.81;;;9.99;100.00
56944;BME280;42848;42.524;12.052;2023-03-14T04:11:39;96097.19;;;10.10;100.00
56944;BME280;42848;42.524;12.052;2023-03-14T04:14:06;96095.53;;;9.96;100.00
56944;BME280;42848;42.524;12.052;2023-03-14T04:16:32;96081.75;;;9.89;100.00
56944;BME280;42848;42.524;12.052;2023-03-14T04:18:57;96078.88;;;9.86;100.00
56944;BME280;42848;42.524;12.052;2023-03-14T04:21:24;96082.91;;;10.01;100.00
56944;BME280;42848;42.524;12.052;2023-03-14T04:23:49;96073.72;;;9.93;100.00
56944;BME280;42848;42.524;12.052;2023-03-14T04:26:15;96073.13;;;9.87;100.00
56944;BME280;42848;42.524;12.052;2023-03-14T04:28:41;96071.84;;;10.06;100.00
56944;BME280;42848;42.524;12.052;2023-03-14T04:31:11;96070.69;;;9.94;100.00
56944;BME280;42848;42.524;12.052;2023-03-14T04:33:37;96065.25;;;9.94;100.00
56944;BME280;42848;42.524;12.052;2023-03-14T04:36:04;96056.84;;;9.87;100.00
56944;BME280;42848;42.524;12.052;2023-03-14T04:38:31;96063.16;;;10.00;100.00
56944;BME280;42848;42.524;12.052;2023-03-14T04:40:57;96044.91;;;9.88;100.00
56944;BME280;42848;42.524;12.052;2023-03-14T04:43:25;96049.41;;;9.84;100.00
56944;BME280;42848;42.524;12.052;2023-03-14T04:45:55;96044.75;;;9.85;100.00
56944;BME280;42848;42.524;12.052;2023-03-14T04:48:21;96049.00;;;9.94;100.00
56944;BME280;42848;42.524;12.052;2023-03-14T04:50:47;96041.72;;;9.86;100.00
56944;BME280;42848;42.524;12.052;2023-03-14T04:53:14;96057.53;;;9.84;100.00
56944;BME280;42848;42.524;12.052;2023-03-14T04:55:40;96058.47;;;9.88;100.00
56944;BME280;42848;42.524;12.052;2023-03-14T04:58:06;96056.13;;;9.78;100.00
56944;BME280;42848;42.524;12.052;2023-03-14T05:00:32;96052.31;;;9.79;100.00
56944;BME280;42848;42.524;12.052;2023-03-14T05:02:57;96056.63;;;9.80;100.00
56944;BME280;42848;42.524;12.052;2023-03-14T05:05:23;96056.94;;;9.79;100.00
56944;BME280;42848;42.524;12.052;2023-03-14T05:07:48;96057.56;;;9.96;100.00
56944;BME280;42848;42.524;12.052;2023-03-14T05:10:14;96061.41;;;9.95;100.00
56944;BME280;42848;42.524;12.052;2023-03-14T05:12:40;96069.09;;;9.93;100.00
56944;BME280;42848;42.524;12.052;2023-03-14T05:15:06;96084.38;;;9.77;100.00
56944;BME280;42848;42.524;12.052;2023-03-14T05:17:33;96086.03;;;9.90;100.00
56944;BME280;42848;42.524;12.052;2023-03-14T05:19:59;96091.47;;;9.90;100.00
56944;BME280;42848;42.524;12.052;2023-03-14T05:22:25;96095.34;;;10.02;100.00
56944;BME280;42848;42.524;12.052;2023-03-14T05:24:51;96109.09;;;9.96;100.00
56944;BME280;42848;42.524;12.052;2023-03-14T05:27:17;96100.31;;;10.00;100.00
56944;BME280;42848;42.524;12.052;2023-03-14T05:29:42;96094.69;;;10.05;100.00
56944;BME280;42848;42.524;12.052;2023-03-14T05:32:08;96089.06;;;10.10;100.00
56944;BME280;42848;42.524;12.052;2023-03-14T05:34:33;96083.25;;;9.99;100.00
56944;BME280;42848;42.524;12.052;2023-03-14T05:36:59;96081.72;;;10.31;100.00
56944;BME280;42848;42.524;12.052;2023-03-14T05:39:25;96093.63;;;10.18;100.00
56944;BME280;42848;42.524;12.052;2023-03-14T05:41:51;96096.13;;;10.02;100.00
56944;BME280;42848;42.524;12.052;2023-03-14T05:44:16;96097.34;;;9.92;100.00
56944;BME280;42848;42.524;12.052;2023-03-14T05:46:42;96101.56;;;10.02;100.00
56944;BME280;42848;42.524;12.052;2023-03-14T05:49:08;96097.16;;;9.97;100.00
56944;BME280;42848;42.524;12.052;2023-03-14T05:51:33;96100.50;;;9.94;100.00
56944;BME280;42848;42.524;12.052;2023-03-14T05:53:59;96096.09;;;9.90;100.00
56944;BME280;42848;42.524;12.052;2023-03-14T05:56:24;96090.00;;;9.93;100.00
56944;BME280;42848;42.524;12.052;2023-03-14T05:58:50;96092.50;;;9.98;100.00
56944;BME280;42848;42.524;12.052;2023-03-14T06:01:16;96095.00;;;10.03;100.00
56944;BME280;42848;42.524;12.052;2023-03-14T06:03:41;96099.91;;;10.10;100.00
56944;BME280;42848;42.524;12.052;2023-03-14T06:06:07;96108.72;;;10.07;100.00
56944;BME280;42848;42.524;12.052;2023-03-14T06:08:33;96100.59;;;10.07;100.00
56944;BME280;42848;42.524;12.052;2023-03-14T06:10:59;96104.66;;;10.13;100.00
56944;BME280;42848;42.524;12.052;2023-03-14T06:13:27;96104.59;;;10.21;100.00
56944;BME280;42848;42.524;12.052;2023-03-14T06:15:53;96103.16;;;10.24;100.00
56944;BME280;42848;42.524;12.052;2023-03-14T06:18:19;96092.66;;;10.22;100.00
56944;BME280;42848;42.524;12.052;2023-03-14T06:20:44;96091.03;;;10.21;100.00
56944;BME280;42848;42.524;12.052;2023-03-14T06:23:10;96080.19;;;10.21;100.00
56944;BME280;42848;42.524;12.052;2023-03-14T06:25:36;96068.38;;;10.26;100.00
56944;BME280;42848;42.524;12.052;2023-03-14T06:28:02;96041.41;;;10.21;100.00
56944;BME280;42848;42.524;12.052;2023-03-14T06:30:28;95974.63;;;10.16;100.00
56944;BME280;42848;42.524;12.052;2023-03-14T06:32:54;95934.03;;;10.08;100.00
56944;BME280;42848;42.524;12.052;2023-03-14T06:35:21;95968.81;;;10.06;100.00
56944;BME280;42848;42.524;12.052;2023-03-14T06:37:47;95947.53;;;9.95;100.00
56944;BME280;42848;42.524;12.052;2023-03-14T06:40:13;95912.09;;;10.01;100.00
56944;BME280;42848;42.524;12.052;2023-03-14T06:42:43;95969.28;;;10.08;100.00
56944;BME280;42848;42.524;12.052;2023-03-14T06:45:10;96008.72;;;10.38;100.00
56944;BME280;42848;42.524;12.052;2023-03-14T06:47:36;95943.16;;;10.36;100.00
56944;BME280;42848;42.524;12.052;2023-03-14T06:50:05;95939.75;;;10.39;100.00
56944;BME280;42848;42.524;12.052;2023-03-14T06:52:30;95982.53;;;10.67;100.00
56944;BME280;42848;42.524;12.052;2023-03-14T06:54:56;95975.88;;;10.76;100.00
56944;BME280;42848;42.524;12.052;2023-03-14T06:57:22;95952.09;;;10.86;100.00
56944;BME280;42848;42.524;12.052;2023-03-14T06:59:47;95969.97;;;10.87;100.00
56944;BME280;42848;42.524;12.052;2023-03-14T07:02:13;95967.84;;;10.80;100.00
56944;BME280;42848;42.524;12.052;2023-03-14T07:04:40;95941.25;;;10.86;100.00
56944;BME280;42848;42.524;12.052;2023-03-14T07:07:06;95947.78;;;10.97;100.00
56944;BME280;42848;42.524;12.052;2023-03-14T07:09:33;95952.41;;;11.21;100.00
56944;BME280;42848;42.524;12.052;2023-03-14T07:11:58;95943.13;;;11.22;100.00
56944;BME280;42848;42.524;12.052;2023-03-14T07:14:24;95922.31;;;11.26;100.00
56944;BME280;42848;42.524;12.052;2023-03-14T07:16:50;95923.84;;;11.39;100.00
56944;BME280;42848;42.524;12.052;2023-03-14T07:19:16;95925.63;;;11.47;100.00
56944;BME280;42848;42.524;12.052;2023-03-14T07:21:41;95911.31;;;11.62;100.00
56944;BME280;42848;42.524;12.052;2023-03-14T07:24:07;95927.84;;;11.57;100.00
56944;BME280;42848;42.524;12.052;2023-03-14T07:26:33;95924.56;;;11.64;100.00
56944;BME280;42848;42.524;12.052;2023-03-14T07:28:59;95925.28;;;11.77;100.00
56944;BME280;42848;42.524;12.052;2023-03-14T07:31:25;95944.75;;;11.79;100.00
56944;BME280;42848;42.524;12.052;2023-03-14T07:33:50;95954.66;;;11.71;100.00
56944;BME280;42848;42.524;12.052;2023-03-14T07:36:17;95955.78;;;11.82;100.00
56944;BME280;42848;42.524;12.052;2023-03-14T07:38:43;95942.22;;;11.98;100.00
56944;BME280;42848;42.524;12.052;2023-03-14T07:41:09;95935.88;;;11.94;100.00
56944;BME280;42848;42.524;12.052;2023-03-14T07:43:34;95941.31;;;11.94;100.00
56944;BME280;42848;42.524;12.052;2023-03-14T07:46:00;95923.00;;;12.07;100.00
56944;BME280;42848;42.524;12.052;2023-03-14T07:48:26;95930.69;;;12.33;100.00
56944;BME280;42848;42.524;12.052;2023-03-14T07:50:54;95929.06;;;12.16;100.00
56944;BME280;42848;42.524;12.052;2023-03-14T07:53:21;95917.78;;;12.30;100.00
56944;BME280;42848;42.524;12.052;2023-03-14T07:55:46;95915.06;;;12.30;100.00
56944;BME280;42848;42.524;12.052;2023-03-14T07:58:13;95905.50;;;12.20;100.00
56944;BME280;42848;42.524;12.052;2023-03-14T08:00:39;95883.63;;;12.32;100.00
56944;BME280;42848;42.524;12.052;2023-03-14T08:03:05;95862.28;;;12.34;100.00
56944;BME280;42848;42.524;12.052;2023-03-14T08:05:34;95872.75;;;12.32;100.00
56944;BME280;42848;42.524;12.052;2023-03-14T08:08:00;95880.13;;;12.32;100.00
56944;BME280;42848;42.524;12.052;2023-03-14T08:10:26;95867.41;;;12.36;100.00
56944;BME280;42848;42.524;12.052;2023-03-14T08:12:56;95878.97;;;12.48;100.00
56944;BME280;42848;42.524;12.052;2023-03-14T08:15:23;95887.91;;;12.65;100.00
56944;BME280;42848;42.524;12.052;2023-03-14T08:17:49;95893.72;;;12.63;100.00
56944;BME280;42848;42.524;12.052;2023-03-14T08:20:21;95873.13;;;12.81;100.00
56944;BME280;42848;42.524;12.052;2023-03-14T08:22:47;95887.94;;;13.00;100.00
56944;BME280;42848;42.524;12.052;2023-03-14T08:25:13;95895.13;;;13.08;100.00
56944;BME280;42848;42.524;12.052;2023-03-14T08:27:39;95897.50;;;13.09;100.00
56944;BME280;42848;42.524;12.052;2023-03-14T08:30:10;95888.81;;;13.04;100.00
56944;BME280;42848;42.524;12.052;2023-03-14T08:32:36;95881.63;;;12.96;100.00
56944;BME280;42848;42.524;12.052;2023-03-14T08:35:03;95884.75;;;12.98;100.00
56944;BME280;42848;42.524;12.052;2023-03-14T08:37:31;95895.22;;;12.96;100.00
56944;BME280;42848;42.524;12.052;2023-03-14T08:39:57;95888.59;;;12.77;100.00
56944;BME280;42848;42.524;12.052;2023-03-14T08:42:23;95893.00;;;12.50;100.00
56944;BME280;42848;42.524;12.052;2023-03-14T08:44:50;95897.84;;;12.57;100.00
56944;BME280;42848;42.524;12.052;2023-03-14T08:47:16;95899.44;;;12.58;100.00
56944;BME280;42848;42.524;12.052;2023-03-14T08:49:41;95894.94;;;12.66;100.00
56944;BME280;42848;42.524;12.052;2023-03-14T08:52:07;95897.06;;;12.57;100.00
56944;BME280;42848;42.524;12.052;2023-03-14T08:54:32;95898.28;;;12.59;100.00
56944;BME280;42848;42.524;12.052;2023-03-14T08:56:58;95905.47;;;12.51;100.00
56944;BME280;42848;42.524;12.052;2023-03-14T08:59:24;95886.97;;;12.26;100.00
56944;BME280;42848;42.524;12.052;2023-03-14T09:01:50;95883.44;;;12.09;100.00
56944;BME280;42848;42.524;12.052;2023-03-14T09:04:16;95876.50;;;12.12;100.00
56944;BME280;42848;42.524;12.052;2023-03-14T09:06:41;95882.56;;;12.05;100.00
56944;BME280;42848;42.524;12.052;2023-03-14T09:09:07;95868.59;;;11.91;100.00
56944;BME280;42848;42.524;12.052;2023-03-14T09:11:33;95864.31;;;11.90;100.00
56944;BME280;42848;42.524;12.052;2023-03-14T09:13:59;95855.00;;;11.91;100.00
56944;BME280;42848;42.524;12.052;2023-03-14T09:16:25;95854.66;;;11.92;100.00
56944;BME280;42848;42.524;12.052;2023-03-14T09:18:50;95834.81;;;11.92;100.00
56944;BME280;42848;42.524;12.052;2023-03-14T09:21:21;95842.72;;;11.97;100.00
56944;BME280;42848;42.524;12.052;2023-03-14T09:23:46;95848.16;;;11.97;100.00
56944;BME280;42848;42.524;12.052;2023-03-14T09:26:12;95845.53;;;12.01;100.00
56944;BME280;42848;42.524;12.052;2023-03-14T09:28:38;95847.47;;;12.00;100.00
56944;BME280;42848;42.524;12.052;2023-03-14T09:31:11;95835.34;;;11.98;100.00
56944;BME280;42848;42.524;12.052;2023-03-14T09:33:37;95840.44;;;11.99;100.00
56944;BME280;42848;42.524;12.052;2023-03-14T09:36:04;95834.91;;;11.95;100.00
56944;BME280;42848;42.524;12.052;2023-03-14T09:38:30;95835.97;;;11.91;100.00
56944;BME280;42848;42.524;12.052;2023-03-14T09:40:59;95829.75;;;11.90;100.00
56944;BME280;42848;42.524;12.052;2023-03-14T09:43:28;95841.56;;;11.82;100.00
56944;BME280;42848;42.524;12.052;2023-03-14T09:45:57;95838.84;;;11.82;100.00
56944;BME280;42848;42.524;12.052;2023-03-14T09:48:27;95843.16;;;11.83;100.00
56944;BME280;42848;42.524;12.052;2023-03-14T09:50:56;95834.56;;;11.81;100.00
56944;BME280;42848;42.524;12.052;2023-03-14T09:53:39;95840.78;;;11.82;100.00
56944;BME280;42848;42.524;12.052;2023-03-14T09:56:18;95839.22;;;11.81;100.00
56944;BME280;42848;42.524;12.052;2023-03-14T09:58:50;95835.34;;;11.82;100.00
56944;BME280;42848;42.524;12.052;2023-03-14T10:01:22;95830.69;;;11.82;100.00
56944;BME280;42848;42.524;12.052;2023-03-14T10:03:51;95828.75;;;11.83;100.00
56944;BME280;42848;42.524;12.052;2023-03-14T10:06:19;95835.44;;;11.85;100.00
56944;BME280;42848;42.524;12.052;2023-03-14T10:08:47;95836.00;;;11.79;100.00
56944;BME280;42848;42.524;12.052;2023-03-14T10:11:17;95830.13;;;11.77;100.00
56944;BME280;42848;42.524;12.052;2023-03-14T10:16:14;95821.78;;;11.69;100.00
56944;BME280;42848;42.524;12.052;2023-03-14T10:18:44;95816.59;;;11.64;100.00
56944;BME280;42848;42.524;12.052;2023-03-14T10:21:21;95814.59;;;11.61;100.00
56944;BME280;42848;42.524;12.052;2023-03-14T10:23:51;95808.25;;;11.57;100.00
56944;BME280;42848;42.524;12.052;2023-03-14T10:26:23;95802.75;;;11.54;100.00
56944;BME280;42848;42.524;12.052;2023-03-14T10:28:54;95799.56;;;11.52;100.00
56944;BME280;42848;42.524;12.052;2023-03-14T10:31:26;95791.69;;;11.47;100.00
56944;BME280;42848;42.524;12.052;2023-03-14T10:34:04;95781.44;;;11.56;100.00
56944;BME280;42848;42.524;12.052;2023-03-14T10:36:32;95786.69;;;11.49;100.00
56944;BME280;42848;42.524;12.052;2023-03-14T10:39:30;95787.03;;;11.47;100.00
56944;BME280;42848;42.524;12.052;2023-03-14T10:42:25;95770.00;;;11.50;100.00
56944;BME280;42848;42.524;12.052;2023-03-14T10:44:54;95780.72;;;11.43;100.00
56944;BME280;42848;42.524;12.052;2023-03-14T10:47:23;95769.75;;;11.39;100.00
56944;BME280;42848;42.524;12.052;2023-03-14T10:49:50;95761.00;;;11.46;100.00
56944;BME280;42848;42.524;12.052;2023-03-14T10:54:57;95737.84;;;11.36;100.00
56944;BME280;42848;42.524;12.052;2023-03-14T10:57:24;95743.34;;;11.40;100.00
56944;BME280;42848;42.524;12.052;2023-03-14T10:59:50;95742.69;;;11.43;100.00
56944;BME280;42848;42.524;12.052;2023-03-14T11:08:11;95720.13;;;11.58;100.00
56944;BME280;42848;42.524;12.052;2023-03-14T11:10:39;95717.16;;;11.63;100.00
56944;BME280;42848;42.524;12.052;2023-03-14T11:28:49;95676.28;;;11.76;100.00
56944;BME280;42848;42.524;12.052;2023-03-14T11:31:41;95671.47;;;11.85;100.00
56944;BME280;42848;42.524;12.052;2023-03-14T11:37:05;95666.03;;;11.85;100.00
56944;BME280;42848;42.524;12.052;2023-03-14T11:39:46;95667.91;;;11.81;100.00
56944;BME280;42848;42.524;12.052;2023-03-14T11:42:16;95654.31;;;11.81;100.00
56944;BME280;42848;42.524;12.052;2023-03-14T11:44:46;95660.75;;;11.76;100.00
56944;BME280;42848;42.524;12.052;2023-03-14T11:47:38;95654.97;;;11.78;100.00
56944;BME280;42848;42.524;12.052;2023-03-14T11:50:15;95640.09;;;11.72;100.00
56944;BME280;42848;42.524;12.052;2023-03-14T11:53:03;95626.75;;;11.66;100.00
56944;BME280;42848;42.524;12.052;2023-03-14T11:55:32;95626.56;;;11.59;100.00
56944;BME280;42848;42.524;12.052;2023-03-14T11:58:26;95623.50;;;11.61;100.00
56944;BME280;42848;42.524;12.052;2023-03-14T12:00:55;95615.34;;;11.61;100.00
56944;BME280;42848;42.524;12.052;2023-03-14T12:03:52;95609.41;;;11.55;100.00
56944;BME280;42848;42.524;12.052;2023-03-14T12:06:31;95603.25;;;11.58;100.00
56944;BME280;42848;42.524;12.052;2023-03-14T12:09:04;95602.41;;;11.54;100.00
56944;BME280;42848;42.524;12.052;2023-03-14T12:11:47;95600.03;;;11.53;100.00
56944;BME280;42848;42.524;12.052;2023-03-14T12:14:34;95598.72;;;11.47;100.00
56944;BME280;42848;42.524;12.052;2023-03-14T12:19:38;95592.09;;;11.44;100.00
56944;BME280;42848;42.524;12.052;2023-03-14T12:22:56;95586.53;;;11.40;100.00
56944;BME280;42848;42.524;12.052;2023-03-14T12:25:23;95583.03;;;11.40;100.00
56944;BME280;42848;42.524;12.052;2023-03-14T12:35:50;95551.50;;;11.35;100.00
56944;BME280;42848;42.524;12.052;2023-03-14T12:43:45;95535.41;;;11.27;100.00
56944;BME280;42848;42.524;12.052;2023-03-14T12:48:45;95519.28;;;11.18;100.00
56944;BME280;42848;42.524;12.052;2023-03-14T12:51:14;95525.84;;;11.17;100.00
56944;BME280;42848;42.524;12.052;2023-03-14T12:59:35;95505.88;;;11.09;100.00
56944;BME280;42848;42.524;12.052;2023-03-14T13:07:35;95492.56;;;11.04;100.00
56944;BME280;42848;42.524;12.052;2023-03-14T13:13:01;95498.16;;;11.11;100.00
56944;BME280;42848;42.524;12.052;2023-03-14T13:15:56;95489.13;;;11.23;100.00
56944;BME280;42848;42.524;12.052;2023-03-14T13:18:40;95496.25;;;11.12;100.00
56944;BME280;42848;42.524;12.052;2023-03-14T13:24:01;95482.75;;;11.16;100.00
56944;BME280;42848;42.524;12.052;2023-03-14T13:26:40;95469.38;;;11.07;100.00
56944;BME280;42848;42.524;12.052;2023-03-14T13:29:31;95470.22;;;11.11;100.00
56944;BME280;42848;42.524;12.052;2023-03-14T13:32:17;95474.16;;;11.14;100.00
56944;BME280;42848;42.524;12.052;2023-03-14T13:34:44;95468.03;;;11.17;100.00
56944;BME280;42848;42.524;12.052;2023-03-14T13:37:28;95464.25;;;11.21;100.00
56944;BME280;42848;42.524;12.052;2023-03-14T13:39:57;95462.59;;;11.17;100.00
56944;BME280;42848;42.524;12.052;2023-03-14T13:42:28;95456.72;;;11.15;100.00
56944;BME280;42848;42.524;12.052;2023-03-14T13:44:55;95455.66;;;11.19;100.00
56944;BME280;42848;42.524;12.052;2023-03-14T13:47:24;95452.88;;;11.16;100.00
56944;BME280;42848;42.524;12.052;2023-03-14T13:49:51;95455.44;;;11.08;100.00
56944;BME280;42848;42.524;12.052;2023-03-14T13:52:37;95445.59;;;11.20;100.00
56944;BME280;42848;42.524;12.052;2023-03-14T13:55:05;95448.38;;;11.23;100.00
56944;BME280;42848;42.524;12.052;2023-03-14T13:57:49;95455.09;;;11.29;100.00
56944;BME280;42848;42.524;12.052;2023-03-14T14:00:34;95442.66;;;11.28;100.00
56944;BME280;42848;42.524;12.052;2023-03-14T14:03:00;95438.03;;;11.29;100.00